sensor_id;sensor_type;location;lat;lon;timestamp;P1;durP1;ratioP1;P2;durP2;ratioP2
1346;SDS011;667;48.796;9.480;2022-10-31T00:01:40;9.77;;;5.28;;
1346;SDS011;667;48.796;9.480;2022-10-31T00:04:08;6.13;;;4.80;;
1346;SDS011;667;48.796;9.480;2022-10-31T00:06:33;4.93;;;4.30;;
1346;SDS011;667;48.796;9.480;2022-10-31T00:09:00;5.27;;;3.83;;
1346;SDS011;667;48.796;9.480;2022-10-31T00:11:28;10.52;;;4.20;;
1346;SDS011;667;48.796;9.480;2022-10-31T00:13:54;8.35;;;5.05;;
1346;SDS011;667;48.796;9.480;2022-10-31T00:16:20;5.40;;;4.60;;
1346;SDS011;667;48.796;9.480;2022-10-31T00:18:51;8.23;;;4.72;;
1346;SDS011;667;48.796;9.480;2022-10-31T00:21:17;7.65;;;4.30;;
1346;SDS011;667;48.796;9.480;2022-10-31T00:23:43;5.82;;;4.40;;
1346;SDS011;667;48.796;9.480;2022-10-31T00:26:09;7.23;;;4.77;;
1346;SDS011;667;48.796;9.480;2022-10-31T00:28:35;7.50;;;4.37;;
1346;SDS011;667;48.796;9.480;2022-10-31T00:31:01;6.90;;;5.10;;
1346;SDS011;667;48.796;9.480;2022-10-31T00:33:27;7.03;;;4.53;;
1346;SDS011;667;48.796;9.480;2022-10-31T00:35:53;5.80;;;3.63;;
1346;SDS011;667;48.796;9.480;2022-10-31T00:38:19;7.27;;;4.07;;
1346;SDS011;667;48.796;9.480;2022-10-31T00:40:45;7.63;;;4.80;;
1346;SDS011;667;48.796;9.480;2022-10-31T00:43:10;5.63;;;4.10;;
1346;SDS011;667;48.796;9.480;2022-10-31T00:45:36;6.00;;;4.10;;
1346;SDS011;667;48.796;9.480;2022-10-31T00:48:01;10.70;;;4.73;;
1346;SDS011;667;48.796;9.480;2022-10-31T00:50:27;5.70;;;4.30;;
1346;SDS011;667;48.796;9.480;2022-10-31T00:52:53;6.60;;;4.77;;
1346;SDS011;667;48.796;9.480;2022-10-31T00:55:18;7.93;;;4.90;;
1346;SDS011;667;48.796;9.480;2022-10-31T00:57:47;7.90;;;4.83;;
1346;SDS011;667;48.796;9.480;2022-10-31T01:00:13;5.20;;;4.30;;
1346;SDS011;667;48.796;9.480;2022-10-31T01:02:39;6.53;;;4.43;;
1346;SDS011;667;48.796;9.480;2022-10-31T01:05:05;6.33;;;4.80;;
1346;SDS011;667;48.796;9.480;2022-10-31T01:07:30;8.07;;;5.00;;
1346;SDS011;667;48.796;9.480;2022-10-31T01:09:56;8.10;;;4.80;;
1346;SDS011;667;48.796;9.480;2022-10-31T01:12:21;5.80;;;4.90;;
1346;SDS011;667;48.796;9.480;2022-10-31T01:14:47;5.90;;;4.87;;
1346;SDS011;667;48.796;9.480;2022-10-31T01:17:13;5.20;;;4.70;;
1346;SDS011;667;48.796;9.480;2022-10-31T01:19:39;8.65;;;5.10;;
1346;SDS011;667;48.796;9.480;2022-10-31T01:22:05;10.60;;;6.45;;
1346;SDS011;667;48.796;9.480;2022-10-31T01:24:30;11.10;;;6.20;;
1346;SDS011;667;48.796;9.480;2022-10-31T01:26:56;15.27;;;6.40;;
1346;SDS011;667;48.796;9.480;2022-10-31T01:29:22;5.97;;;4.73;;
1346;SDS011;667;48.796;9.480;2022-10-31T01:31:47;5.43;;;4.80;;
1346;SDS011;667;48.796;9.480;2022-10-31T01:34:14;7.57;;;5.43;;
1346;SDS011;667;48.796;9.480;2022-10-31T01:36:41;6.28;;;5.22;;
1346;SDS011;667;48.796;9.480;2022-10-31T01:39:09;7.30;;;4.90;;
1346;SDS011;667;48.796;9.480;2022-10-31T01:41:37;7.13;;;6.20;;
1346;SDS011;667;48.796;9.480;2022-10-31T01:46:47;4.75;;;4.18;;
1346;SDS011;667;48.796;9.480;2022-10-31T01:49:15;8.20;;;5.07;;
1346;SDS011;667;48.796;9.480;2022-10-31T01:51:47;6.90;;;4.55;;
1346;SDS011;667;48.796;9.480;2022-10-31T01:54:17;5.85;;;4.43;;
1346;SDS011;667;48.796;9.480;2022-10-31T01:56:48;6.90;;;4.72;;
1346;SDS011;667;48.796;9.480;2022-10-31T01:59:19;7.40;;;4.82;;
1346;SDS011;667;48.796;9.480;2022-10-31T02:01:47;5.13;;;4.10;;
1346;SDS011;667;48.796;9.480;2022-10-31T02:04:15;7.10;;;4.30;;
1346;SDS011;667;48.796;9.480;2022-10-31T02:06:43;9.13;;;4.50;;
1346;SDS011;667;48.796;9.480;2022-10-31T02:09:16;5.10;;;4.20;;
1346;SDS011;667;48.796;9.480;2022-10-31T02:11:48;8.43;;;4.75;;
1346;SDS011;667;48.796;9.480;2022-10-31T02:14:16;7.38;;;4.88;;
1346;SDS011;667;48.796;9.480;2022-10-31T02:16:41;6.37;;;4.30;;
1346;SDS011;667;48.796;9.480;2022-10-31T02:19:07;6.73;;;4.20;;
1346;SDS011;667;48.796;9.480;2022-10-31T02:21:54;8.43;;;4.60;;
1346;SDS011;667;48.796;9.480;2022-10-31T02:30:23;8.80;;;4.50;;
1346;SDS011;667;48.796;9.480;2022-10-31T02:32:54;5.38;;;4.10;;
1346;SDS011;667;48.796;9.480;2022-10-31T02:42:59;6.55;;;4.82;;
1346;SDS011;667;48.796;9.480;2022-10-31T02:48:04;5.63;;;4.55;;
1346;SDS011;667;48.796;9.480;2022-10-31T02:50:36;6.20;;;4.72;;
1346;SDS011;667;48.796;9.480;2022-10-31T02:53:07;5.90;;;5.30;;
1346;SDS011;667;48.796;9.480;2022-10-31T03:00:24;7.93;;;4.60;;
1346;SDS011;667;48.796;9.480;2022-10-31T03:08:30;8.35;;;4.28;;
1346;SDS011;667;48.796;9.480;2022-10-31T03:11:26;8.05;;;4.78;;
1346;SDS011;667;48.796;9.480;2022-10-31T03:14:00;5.75;;;4.40;;
1346;SDS011;667;48.796;9.480;2022-10-31T03:19:18;6.35;;;4.40;;
1346;SDS011;667;48.796;9.480;2022-10-31T03:22:01;7.68;;;4.05;;
1346;SDS011;667;48.796;9.480;2022-10-31T03:24:37;4.78;;;3.85;;
1346;SDS011;667;48.796;9.480;2022-10-31T03:27:04;6.95;;;4.05;;
1346;SDS011;667;48.796;9.480;2022-10-31T03:29:33;5.55;;;4.68;;
1346;SDS011;667;48.796;9.480;2022-10-31T03:34:36;4.70;;;3.72;;
1346;SDS011;667;48.796;9.480;2022-10-31T03:37:04;8.85;;;4.43;;
1346;SDS011;667;48.796;9.480;2022-10-31T03:39:34;5.65;;;4.30;;
1346;SDS011;667;48.796;9.480;2022-10-31T03:42:10;8.32;;;4.10;;
1346;SDS011;667;48.796;9.480;2022-10-31T03:44:38;5.50;;;4.05;;
1346;SDS011;667;48.796;9.480;2022-10-31T03:47:09;3.90;;;3.60;;
1346;SDS011;667;48.796;9.480;2022-10-31T03:49:34;8.20;;;4.00;;
1346;SDS011;667;48.796;9.480;2022-10-31T03:52:13;5.50;;;4.47;;
1346;SDS011;667;48.796;9.480;2022-10-31T03:54:57;6.97;;;4.55;;
1346;SDS011;667;48.796;9.480;2022-10-31T03:57:35;6.63;;;4.40;;
1346;SDS011;667;48.796;9.480;2022-10-31T04:00:06;5.35;;;4.78;;
1346;SDS011;667;48.796;9.480;2022-10-31T04:02:34;5.95;;;4.75;;
1346;SDS011;667;48.796;9.480;2022-10-31T04:05:05;8.10;;;4.18;;
1346;SDS011;667;48.796;9.480;2022-10-31T04:07:34;6.05;;;4.30;;
1346;SDS011;667;48.796;9.480;2022-10-31T04:10:04;8.18;;;4.28;;
1346;SDS011;667;48.796;9.480;2022-10-31T04:12:34;7.07;;;4.85;;
1346;SDS011;667;48.796;9.480;2022-10-31T04:15:01;5.97;;;4.70;;
1346;SDS011;667;48.796;9.480;2022-10-31T04:17:30;4.97;;;4.45;;
1346;SDS011;667;48.796;9.480;2022-10-31T04:19:59;6.07;;;4.38;;
1346;SDS011;667;48.796;9.480;2022-10-31T04:22:27;7.22;;;4.40;;
1346;SDS011;667;48.796;9.480;2022-10-31T04:24:53;8.40;;;4.33;;
1346;SDS011;667;48.796;9.480;2022-10-31T04:27:18;9.57;;;5.17;;
1346;SDS011;667;48.796;9.480;2022-10-31T04:29:44;6.60;;;4.80;;
1346;SDS011;667;48.796;9.480;2022-10-31T04:32:09;5.97;;;4.77;;
1346;SDS011;667;48.796;9.480;2022-10-31T04:34:35;7.20;;;4.47;;
1346;SDS011;667;48.796;9.480;2022-10-31T04:37:00;5.03;;;4.47;;
1346;SDS011;667;48.796;9.480;2022-10-31T04:39:26;5.10;;;4.47;;
1346;SDS011;667;48.796;9.480;2022-10-31T04:41:52;7.03;;;4.30;;
1346;SDS011;667;48.796;9.480;2022-10-31T04:44:17;5.37;;;4.40;;
1346;SDS011;667;48.796;9.480;2022-10-31T04:46:43;5.37;;;4.20;;
1346;SDS011;667;48.796;9.480;2022-10-31T04:49:08;6.60;;;4.60;;
1346;SDS011;667;48.796;9.480;2022-10-31T04:51:34;7.53;;;5.43;;
1346;SDS011;667;48.796;9.480;2022-10-31T04:54:00;7.40;;;4.23;;
1346;SDS011;667;48.796;9.480;2022-10-31T04:56:25;5.30;;;3.97;;
1346;SDS011;667;48.796;9.480;2022-10-31T04:58:51;6.50;;;4.40;;
1346;SDS011;667;48.796;9.480;2022-10-31T05:01:16;5.70;;;4.10;;
1346;SDS011;667;48.796;9.480;2022-10-31T05:03:42;10.90;;;4.60;;
1346;SDS011;667;48.796;9.480;2022-10-31T05:06:08;7.57;;;6.77;;
1346;SDS011;667;48.796;9.480;2022-10-31T05:08:33;6.33;;;4.30;;
1346;SDS011;667;48.796;9.480;2022-10-31T05:11:02;6.50;;;5.47;;
1346;SDS011;667;48.796;9.480;2022-10-31T05:13:29;5.68;;;4.15;;
1346;SDS011;667;48.796;9.480;2022-10-31T05:15:54;5.60;;;4.80;;
1346;SDS011;667;48.796;9.480;2022-10-31T05:18:20;5.57;;;5.07;;
1346;SDS011;667;48.796;9.480;2022-10-31T05:20:46;5.50;;;3.80;;
1346;SDS011;667;48.796;9.480;2022-10-31T05:23:11;8.07;;;5.30;;
1346;SDS011;667;48.796;9.480;2022-10-31T05:25:39;5.13;;;4.60;;
1346;SDS011;667;48.796;9.480;2022-10-31T05:28:05;4.78;;;4.35;;
1346;SDS011;667;48.796;9.480;2022-10-31T05:30:31;5.50;;;4.63;;
1346;SDS011;667;48.796;9.480;2022-10-31T05:32:57;5.18;;;4.55;;
1346;SDS011;667;48.796;9.480;2022-10-31T05:35:24;9.13;;;4.50;;
1346;SDS011;667;48.796;9.480;2022-10-31T05:37:51;4.13;;;3.40;;
1346;SDS011;667;48.796;9.480;2022-10-31T05:40:18;8.43;;;4.00;;
1346;SDS011;667;48.796;9.480;2022-10-31T05:42:44;5.43;;;4.35;;
1346;SDS011;667;48.796;9.480;2022-10-31T05:45:11;4.30;;;3.90;;
1346;SDS011;667;48.796;9.480;2022-10-31T05:47:39;5.20;;;4.70;;
1346;SDS011;667;48.796;9.480;2022-10-31T05:50:05;5.30;;;4.70;;
1346;SDS011;667;48.796;9.480;2022-10-31T05:52:31;8.32;;;5.90;;
1346;SDS011;667;48.796;9.480;2022-10-31T05:54:57;8.90;;;6.40;;
1346;SDS011;667;48.796;9.480;2022-10-31T05:57:22;13.00;;;6.53;;
1346;SDS011;667;48.796;9.480;2022-10-31T05:59:48;13.40;;;6.20;;
1346;SDS011;667;48.796;9.480;2022-10-31T06:02:14;13.80;;;7.07;;
1346;SDS011;667;48.796;9.480;2022-10-31T06:04:39;7.90;;;6.17;;
1346;SDS011;667;48.796;9.480;2022-10-31T06:07:05;8.97;;;5.20;;
1346;SDS011;667;48.796;9.480;2022-10-31T06:09:30;6.97;;;5.17;;
1346;SDS011;667;48.796;9.480;2022-10-31T06:11:56;12.97;;;6.50;;
1346;SDS011;667;48.796;9.480;2022-10-31T06:14:21;9.60;;;5.50;;
1346;SDS011;667;48.796;9.480;2022-10-31T06:16:47;13.83;;;5.97;;
1346;SDS011;667;48.796;9.480;2022-10-31T06:19:12;10.93;;;5.60;;
1346;SDS011;667;48.796;9.480;2022-10-31T06:21:38;11.47;;;7.47;;
1346;SDS011;667;48.796;9.480;2022-10-31T06:24:03;12.40;;;5.50;;
1346;SDS011;667;48.796;9.480;2022-10-31T06:26:29;23.17;;;6.90;;
1346;SDS011;667;48.796;9.480;2022-10-31T06:28:55;8.97;;;6.13;;
1346;SDS011;667;48.796;9.480;2022-10-31T06:31:20;11.17;;;5.60;;
1346;SDS011;667;48.796;9.480;2022-10-31T06:33:46;10.13;;;5.63;;
1346;SDS011;667;48.796;9.480;2022-10-31T06:36:11;11.23;;;5.83;;
1346;SDS011;667;48.796;9.480;2022-10-31T06:38:37;9.47;;;5.13;;
1346;SDS011;667;48.796;9.480;2022-10-31T06:41:03;7.80;;;5.33;;
1346;SDS011;667;48.796;9.480;2022-10-31T06:43:30;7.00;;;4.85;;
1346;SDS011;667;48.796;9.480;2022-10-31T06:45:56;5.37;;;4.80;;
1346;SDS011;667;48.796;9.480;2022-10-31T06:48:21;6.17;;;4.43;;
1346;SDS011;667;48.796;9.480;2022-10-31T06:50:47;6.63;;;5.60;;
1346;SDS011;667;48.796;9.480;2022-10-31T06:53:13;8.53;;;5.00;;
1346;SDS011;667;48.796;9.480;2022-10-31T06:55:39;6.28;;;5.00;;
1346;SDS011;667;48.796;9.480;2022-10-31T06:58:05;4.95;;;4.22;;
1346;SDS011;667;48.796;9.480;2022-10-31T07:00:31;6.60;;;4.50;;
1346;SDS011;667;48.796;9.480;2022-10-31T07:03:04;5.45;;;4.57;;
1346;SDS011;667;48.796;9.480;2022-10-31T07:05:32;8.82;;;5.85;;
1346;SDS011;667;48.796;9.480;2022-10-31T07:07:58;6.80;;;4.67;;
1346;SDS011;667;48.796;9.480;2022-10-31T07:10:27;5.97;;;4.53;;
1346;SDS011;667;48.796;9.480;2022-10-31T07:12:55;8.07;;;5.00;;
1346;SDS011;667;48.796;9.480;2022-10-31T07:15:21;7.97;;;4.40;;
1346;SDS011;667;48.796;9.480;2022-10-31T07:17:47;5.68;;;5.13;;
1346;SDS011;667;48.796;9.480;2022-10-31T07:20:13;4.73;;;4.10;;
1346;SDS011;667;48.796;9.480;2022-10-31T07:22:38;5.03;;;4.53;;
1346;SDS011;667;48.796;9.480;2022-10-31T07:25:04;8.03;;;4.60;;
1346;SDS011;667;48.796;9.480;2022-10-31T07:27:40;6.72;;;4.40;;
1346;SDS011;667;48.796;9.480;2022-10-31T07:30:07;5.10;;;4.40;;
1346;SDS011;667;48.796;9.480;2022-10-31T07:32:37;6.30;;;4.95;;
1346;SDS011;667;48.796;9.480;2022-10-31T07:35:03;5.75;;;5.13;;
1346;SDS011;667;48.796;9.480;2022-10-31T07:37:28;5.77;;;4.80;;
1346;SDS011;667;48.796;9.480;2022-10-31T07:39:54;7.27;;;5.30;;
1346;SDS011;667;48.796;9.480;2022-10-31T07:42:19;10.30;;;5.20;;
1346;SDS011;667;48.796;9.480;2022-10-31T07:44:45;7.47;;;5.53;;
1346;SDS011;667;48.796;9.480;2022-10-31T07:47:10;7.63;;;5.37;;
1346;SDS011;667;48.796;9.480;2022-10-31T07:49:36;6.53;;;5.83;;
1346;SDS011;667;48.796;9.480;2022-10-31T07:52:01;8.90;;;6.67;;
1346;SDS011;667;48.796;9.480;2022-10-31T07:54:27;8.07;;;7.27;;
1346;SDS011;667;48.796;9.480;2022-10-31T07:56:53;7.97;;;6.43;;
1346;SDS011;667;48.796;9.480;2022-10-31T07:59:18;8.40;;;6.47;;
1346;SDS011;667;48.796;9.480;2022-10-31T08:01:44;12.33;;;6.33;;
1346;SDS011;667;48.796;9.480;2022-10-31T08:04:09;9.70;;;8.00;;
1346;SDS011;667;48.796;9.480;2022-10-31T08:06:35;7.47;;;6.77;;
1346;SDS011;667;48.796;9.480;2022-10-31T08:09:00;8.30;;;6.67;;
1346;SDS011;667;48.796;9.480;2022-10-31T08:11:26;8.90;;;7.20;;
1346;SDS011;667;48.796;9.480;2022-10-31T08:13:51;7.40;;;6.70;;
1346;SDS011;667;48.796;9.480;2022-10-31T08:16:17;8.87;;;6.93;;
1346;SDS011;667;48.796;9.480;2022-10-31T08:18:42;7.37;;;6.67;;
1346;SDS011;667;48.796;9.480;2022-10-31T08:21:08;8.83;;;6.80;;
1346;SDS011;667;48.796;9.480;2022-10-31T08:23:34;7.50;;;6.50;;
1346;SDS011;667;48.796;9.480;2022-10-31T08:25:59;6.93;;;6.07;;
1346;SDS011;667;48.796;9.480;2022-10-31T08:28:25;10.27;;;7.13;;
1346;SDS011;667;48.796;9.480;2022-10-31T08:30:51;9.40;;;7.00;;
1346;SDS011;667;48.796;9.480;2022-10-31T08:33:17;8.87;;;6.80;;
1346;SDS011;667;48.796;9.480;2022-10-31T08:35:44;9.20;;;8.00;;
1346;SDS011;667;48.796;9.480;2022-10-31T08:38:11;9.40;;;6.37;;
1346;SDS011;667;48.796;9.480;2022-10-31T08:40:37;7.55;;;6.40;;
1346;SDS011;667;48.796;9.480;2022-10-31T08:43:04;8.05;;;6.78;;
1346;SDS011;667;48.796;9.480;2022-10-31T08:45:32;8.15;;;7.25;;
1346;SDS011;667;48.796;9.480;2022-10-31T08:48:02;10.48;;;7.20;;
1346;SDS011;667;48.796;9.480;2022-10-31T08:50:30;9.18;;;6.88;;
1346;SDS011;667;48.796;9.480;2022-10-31T08:53:30;9.13;;;7.00;;
1346;SDS011;667;48.796;9.480;2022-10-31T08:55:49;9.85;;;6.82;;
1346;SDS011;667;48.796;9.480;2022-10-31T08:58:18;8.13;;;6.20;;
1346;SDS011;667;48.796;9.480;2022-10-31T09:00:45;14.52;;;7.03;;
1346;SDS011;667;48.796;9.480;2022-10-31T09:03:13;9.55;;;7.13;;
1346;SDS011;667;48.796;9.480;2022-10-31T09:05:40;13.50;;;7.37;;
1346;SDS011;667;48.796;9.480;2022-10-31T09:08:06;8.80;;;7.27;;
1346;SDS011;667;48.796;9.480;2022-10-31T09:10:33;6.63;;;6.05;;
1346;SDS011;667;48.796;9.480;2022-10-31T09:13:04;8.73;;;7.80;;
1346;SDS011;667;48.796;9.480;2022-10-31T09:15:31;9.70;;;6.55;;
1346;SDS011;667;48.796;9.480;2022-10-31T09:17:58;10.50;;;7.13;;
1346;SDS011;667;48.796;9.480;2022-10-31T09:20:25;7.78;;;6.63;;
1346;SDS011;667;48.796;9.480;2022-10-31T09:22:55;7.73;;;6.83;;
1346;SDS011;667;48.796;9.480;2022-10-31T09:25:25;8.70;;;7.40;;
1346;SDS011;667;48.796;9.480;2022-10-31T09:27:55;10.03;;;7.13;;
1346;SDS011;667;48.796;9.480;2022-10-31T09:30:25;9.97;;;7.50;;
1346;SDS011;667;48.796;9.480;2022-10-31T09:32:55;9.10;;;6.97;;
1346;SDS011;667;48.796;9.480;2022-10-31T09:35:21;11.47;;;7.20;;
1346;SDS011;667;48.796;9.480;2022-10-31T09:37:53;10.83;;;7.80;;
1346;SDS011;667;48.796;9.480;2022-10-31T09:40:19;7.57;;;6.80;;
1346;SDS011;667;48.796;9.480;2022-10-31T09:42:55;7.00;;;6.30;;
1346;SDS011;667;48.796;9.480;2022-10-31T09:46:12;9.93;;;7.13;;
1346;SDS011;667;48.796;9.480;2022-10-31T09:50:54;8.00;;;6.03;;
1346;SDS011;667;48.796;9.480;2022-10-31T09:53:25;8.67;;;7.67;;
1346;SDS011;667;48.796;9.480;2022-10-31T09:55:59;7.73;;;6.50;;
1346;SDS011;667;48.796;9.480;2022-10-31T09:58:26;7.73;;;6.83;;
1346;SDS011;667;48.796;9.480;2022-10-31T10:00:56;9.83;;;6.33;;
1346;SDS011;667;48.796;9.480;2022-10-31T10:03:32;10.63;;;6.70;;
1346;SDS011;667;48.796;9.480;2022-10-31T10:06:44;8.97;;;6.50;;
1346;SDS011;667;48.796;9.480;2022-10-31T10:08:57;10.50;;;6.97;;
1346;SDS011;667;48.796;9.480;2022-10-31T10:11:31;8.83;;;6.27;;
1346;SDS011;667;48.796;9.480;2022-10-31T10:14:30;10.60;;;7.00;;
1346;SDS011;667;48.796;9.480;2022-10-31T10:20:08;12.07;;;6.00;;
1346;SDS011;667;48.796;9.480;2022-10-31T10:25:37;9.33;;;5.90;;
1346;SDS011;667;48.796;9.480;2022-10-31T10:28:08;7.63;;;6.70;;
1346;SDS011;667;48.796;9.480;2022-10-31T10:30:42;8.80;;;6.10;;
1346;SDS011;667;48.796;9.480;2022-10-31T10:33:27;8.37;;;6.20;;
1346;SDS011;667;48.796;9.480;2022-10-31T10:36:02;5.97;;;5.30;;
1346;SDS011;667;48.796;9.480;2022-10-31T10:41:09;8.00;;;6.47;;
1346;SDS011;667;48.796;9.480;2022-10-31T10:43:51;9.30;;;7.07;;
1346;SDS011;667;48.796;9.480;2022-10-31T10:46:18;9.93;;;6.00;;
1346;SDS011;667;48.796;9.480;2022-10-31T10:49:18;12.27;;;5.70;;
1346;SDS011;667;48.796;9.480;2022-10-31T10:51:58;8.37;;;6.43;;
1346;SDS011;667;48.796;9.480;2022-10-31T10:54:42;8.77;;;6.60;;
1346;SDS011;667;48.796;9.480;2022-10-31T11:00:03;10.37;;;6.40;;
1346;SDS011;667;48.796;9.480;2022-10-31T11:02:41;10.93;;;8.13;;
1346;SDS011;667;48.796;9.480;2022-10-31T11:05:08;6.60;;;6.00;;
1346;SDS011;667;48.796;9.480;2022-10-31T11:07:43;11.97;;;7.30;;
1346;SDS011;667;48.796;9.480;2022-10-31T11:10:12;8.20;;;6.10;;
1346;SDS011;667;48.796;9.480;2022-10-31T11:12:39;7.83;;;6.80;;
1346;SDS011;667;48.796;9.480;2022-10-31T11:15:24;9.67;;;6.50;;
1346;SDS011;667;48.796;9.480;2022-10-31T11:17:51;7.50;;;5.90;;
1346;SDS011;667;48.796;9.480;2022-10-31T11:22:45;6.17;;;5.67;;
1346;SDS011;667;48.796;9.480;2022-10-31T11:27:44;11.77;;;6.60;;
1346;SDS011;667;48.796;9.480;2022-10-31T11:30:12;8.20;;;6.27;;
1346;SDS011;667;48.796;9.480;2022-10-31T11:32:43;6.90;;;6.20;;
1346;SDS011;667;48.796;9.480;2022-10-31T11:35:14;10.87;;;6.00;;
1346;SDS011;667;48.796;9.480;2022-10-31T11:37:43;7.47;;;5.80;;
1346;SDS011;667;48.796;9.480;2022-10-31T11:40:18;7.60;;;6.17;;
1346;SDS011;667;48.796;9.480;2022-10-31T11:42:47;8.60;;;7.10;;
1346;SDS011;667;48.796;9.480;2022-10-31T11:47:52;6.90;;;5.33;;
1346;SDS011;667;48.796;9.480;2022-10-31T11:50:22;8.27;;;5.80;;
1346;SDS011;667;48.796;9.480;2022-10-31T11:52:50;10.40;;;5.83;;
1346;SDS011;667;48.796;9.480;2022-10-31T11:55:36;11.77;;;6.20;;
1346;SDS011;667;48.796;9.480;2022-10-31T11:58:04;7.57;;;4.80;;
1346;SDS011;667;48.796;9.480;2022-10-31T12:00:47;6.67;;;5.47;;
1346;SDS011;667;48.796;9.480;2022-10-31T12:03:36;7.33;;;5.77;;
1346;SDS011;667;48.796;9.480;2022-10-31T12:06:16;8.07;;;5.20;;
1346;SDS011;667;48.796;9.480;2022-10-31T12:08:46;8.43;;;5.93;;
1346;SDS011;667;48.796;9.480;2022-10-31T12:21:40;8.27;;;5.57;;
1346;SDS011;667;48.796;9.480;2022-10-31T12:27:13;8.77;;;5.77;;
1346;SDS011;667;48.796;9.480;2022-10-31T12:29:56;6.90;;;5.10;;
1346;SDS011;667;48.796;9.480;2022-10-31T12:32:33;6.03;;;5.27;;
1346;SDS011;667;48.796;9.480;2022-10-31T12:41:11;8.30;;;5.17;;
1346;SDS011;667;48.796;9.480;2022-10-31T12:44:11;7.10;;;5.03;;
1346;SDS011;667;48.796;9.480;2022-10-31T12:47:03;7.07;;;6.10;;
1346;SDS011;667;48.796;9.480;2022-10-31T12:55:25;12.87;;;6.50;;
1346;SDS011;667;48.796;9.480;2022-10-31T12:58:01;10.93;;;5.83;;
1346;SDS011;667;48.796;9.480;2022-10-31T13:00:48;9.07;;;6.00;;
1346;SDS011;667;48.796;9.480;2022-10-31T13:05:48;7.43;;;5.33;;
1346;SDS011;667;48.796;9.480;2022-10-31T13:08:22;8.23;;;5.73;;
1346;SDS011;667;48.796;9.480;2022-10-31T13:14:11;7.47;;;5.40;;
1346;SDS011;667;48.796;9.480;2022-10-31T13:16:47;6.80;;;6.10;;
1346;SDS011;667;48.796;9.480;2022-10-31T13:19:27;9.20;;;5.20;;
1346;SDS011;667;48.796;9.480;2022-10-31T13:22:16;8.90;;;5.83;;
1346;SDS011;667;48.796;9.480;2022-10-31T13:24:59;8.67;;;6.50;;
1346;SDS011;667;48.796;9.480;2022-10-31T13:30:13;6.50;;;5.07;;
1346;SDS011;667;48.796;9.480;2022-10-31T13:32:45;6.90;;;5.17;;
1346;SDS011;667;48.796;9.480;2022-10-31T13:35:19;8.63;;;5.57;;
1346;SDS011;667;48.796;9.480;2022-10-31T13:38:05;6.90;;;5.60;;
1346;SDS011;667;48.796;9.480;2022-10-31T13:40:42;9.43;;;6.13;;
1346;SDS011;667;48.796;9.480;2022-10-31T13:43:21;9.40;;;5.57;;
1346;SDS011;667;48.796;9.480;2022-10-31T13:46:20;7.93;;;5.60;;
1346;SDS011;667;48.796;9.480;2022-10-31T13:48:55;10.10;;;7.10;;
1346;SDS011;667;48.796;9.480;2022-10-31T13:51:25;6.83;;;6.00;;
1346;SDS011;667;48.796;9.480;2022-10-31T13:56:22;9.30;;;6.27;;
1346;SDS011;667;48.796;9.480;2022-10-31T13:58:56;10.77;;;5.80;;
1346;SDS011;667;48.796;9.480;2022-10-31T14:01:28;7.43;;;5.50;;
1346;SDS011;667;48.796;9.480;2022-10-31T14:04:06;13.27;;;7.83;;
1346;SDS011;667;48.796;9.480;2022-10-31T14:09:05;10.77;;;6.10;;
1346;SDS011;667;48.796;9.480;2022-10-31T14:11:42;8.20;;;6.47;;
1346;SDS011;667;48.796;9.480;2022-10-31T14:14:11;8.00;;;5.60;;
1346;SDS011;667;48.796;9.480;2022-10-31T14:16:38;9.10;;;5.83;;
1346;SDS011;667;48.796;9.480;2022-10-31T14:19:40;7.90;;;5.30;;
1346;SDS011;667;48.796;9.480;2022-10-31T14:21:59;8.57;;;6.00;;
1346;SDS011;667;48.796;9.480;2022-10-31T14:27:04;8.10;;;6.23;;
1346;SDS011;667;48.796;9.480;2022-10-31T14:29:49;6.87;;;5.60;;
1346;SDS011;667;48.796;9.480;2022-10-31T14:32:19;9.63;;;5.83;;
1346;SDS011;667;48.796;9.480;2022-10-31T14:34:53;9.30;;;5.70;;
1346;SDS011;667;48.796;9.480;2022-10-31T14:51:29;10.87;;;7.80;;
1346;SDS011;667;48.796;9.480;2022-10-31T14:54:12;9.60;;;8.60;;
1346;SDS011;667;48.796;9.480;2022-10-31T14:57:05;11.00;;;8.27;;
1346;SDS011;667;48.796;9.480;2022-10-31T14:59:33;9.87;;;8.17;;
1346;SDS011;667;48.796;9.480;2022-10-31T15:05:08;14.17;;;8.70;;
1346;SDS011;667;48.796;9.480;2022-10-31T15:07:36;10.97;;;9.07;;
1346;SDS011;667;48.796;9.480;2022-10-31T15:10:19;10.90;;;8.03;;
1346;SDS011;667;48.796;9.480;2022-10-31T15:12:47;8.00;;;7.13;;
1346;SDS011;667;48.796;9.480;2022-10-31T15:15:14;9.20;;;7.90;;
1346;SDS011;667;48.796;9.480;2022-10-31T15:17:54;8.47;;;6.97;;
1346;SDS011;667;48.796;9.480;2022-10-31T15:20:24;9.10;;;6.10;;
1346;SDS011;667;48.796;9.480;2022-10-31T15:22:53;8.03;;;6.40;;
1346;SDS011;667;48.796;9.480;2022-10-31T15:25:22;6.97;;;5.73;;
1346;SDS011;667;48.796;9.480;2022-10-31T15:27:50;8.10;;;6.73;;
1346;SDS011;667;48.796;9.480;2022-10-31T15:30:18;9.10;;;5.87;;
1346;SDS011;667;48.796;9.480;2022-10-31T15:32:46;7.87;;;5.60;;
1346;SDS011;667;48.796;9.480;2022-10-31T15:35:19;10.90;;;6.30;;
1346;SDS011;667;48.796;9.480;2022-10-31T15:37:47;8.93;;;6.27;;
1346;SDS011;667;48.796;9.480;2022-10-31T15:40:16;8.63;;;6.83;;
1346;SDS011;667;48.796;9.480;2022-10-31T15:42:44;8.60;;;6.33;;
1346;SDS011;667;48.796;9.480;2022-10-31T15:45:25;7.97;;;6.67;;
1346;SDS011;667;48.796;9.480;2022-10-31T15:50:44;7.57;;;6.10;;
1346;SDS011;667;48.796;9.480;2022-10-31T15:55:54;9.47;;;5.90;;
1346;SDS011;667;48.796;9.480;2022-10-31T15:58:25;9.20;;;6.00;;
1346;SDS011;667;48.796;9.480;2022-10-31T16:00:57;7.63;;;6.67;;
1346;SDS011;667;48.796;9.480;2022-10-31T16:03:31;11.70;;;8.77;;
1346;SDS011;667;48.796;9.480;2022-10-31T16:05:59;12.20;;;9.70;;
1346;SDS011;667;48.796;9.480;2022-10-31T16:10:58;28.33;;;22.80;;
1346;SDS011;667;48.796;9.480;2022-10-31T16:13:31;13.90;;;10.13;;
1346;SDS011;667;48.796;9.480;2022-10-31T16:16:00;8.73;;;7.10;;
1346;SDS011;667;48.796;9.480;2022-10-31T16:18:27;7.77;;;6.97;;
1346;SDS011;667;48.796;9.480;2022-10-31T16:20:59;12.10;;;8.50;;
1346;SDS011;667;48.796;9.480;2022-10-31T16:23:25;11.10;;;6.93;;
1346;SDS011;667;48.796;9.480;2022-10-31T16:25:52;9.07;;;6.00;;
1346;SDS011;667;48.796;9.480;2022-10-31T16:28:22;9.93;;;7.30;;
1346;SDS011;667;48.796;9.480;2022-10-31T16:30:54;8.03;;;6.57;;
1346;SDS011;667;48.796;9.480;2022-10-31T16:33:22;7.57;;;6.70;;
1346;SDS011;667;48.796;9.480;2022-10-31T16:35:48;7.03;;;6.07;;
1346;SDS011;667;48.796;9.480;2022-10-31T16:38:14;9.87;;;6.50;;
1346;SDS011;667;48.796;9.480;2022-10-31T16:40:40;7.03;;;5.67;;
1346;SDS011;667;48.796;9.480;2022-10-31T16:43:08;8.83;;;6.43;;
1346;SDS011;667;48.796;9.480;2022-10-31T16:45:42;10.47;;;7.00;;
1346;SDS011;667;48.796;9.480;2022-10-31T16:48:16;9.07;;;6.20;;
1346;SDS011;667;48.796;9.480;2022-10-31T16:50:47;8.90;;;7.30;;
1346;SDS011;667;48.796;9.480;2022-10-31T16:53:14;8.93;;;8.07;;
1346;SDS011;667;48.796;9.480;2022-10-31T16:55:45;8.20;;;7.10;;
1346;SDS011;667;48.796;9.480;2022-10-31T16:58:23;13.57;;;7.33;;
1346;SDS011;667;48.796;9.480;2022-10-31T17:00:57;11.03;;;7.03;;
1346;SDS011;667;48.796;9.480;2022-10-31T17:03:28;9.70;;;8.40;;
1346;SDS011;667;48.796;9.480;2022-10-31T17:05:55;11.53;;;6.70;;
1346;SDS011;667;48.796;9.480;2022-10-31T17:08:20;10.17;;;6.80;;
1346;SDS011;667;48.796;9.480;2022-10-31T17:10:46;12.40;;;8.90;;
1346;SDS011;667;48.796;9.480;2022-10-31T17:13:16;14.40;;;7.03;;
1346;SDS011;667;48.796;9.480;2022-10-31T17:15:46;8.13;;;6.53;;
1346;SDS011;667;48.796;9.480;2022-10-31T17:18:14;5.87;;;5.37;;
1346;SDS011;667;48.796;9.480;2022-10-31T17:20:41;8.83;;;6.10;;
1346;SDS011;667;48.796;9.480;2022-10-31T17:23:09;8.47;;;6.77;;
1346;SDS011;667;48.796;9.480;2022-10-31T17:25:35;10.00;;;6.30;;
1346;SDS011;667;48.796;9.480;2022-10-31T17:28:01;9.20;;;5.70;;
1346;SDS011;667;48.796;9.480;2022-10-31T17:30:27;8.90;;;5.30;;
1346;SDS011;667;48.796;9.480;2022-10-31T17:32:53;9.73;;;6.23;;
1346;SDS011;667;48.796;9.480;2022-10-31T17:35:19;9.87;;;6.20;;
1346;SDS011;667;48.796;9.480;2022-10-31T17:37:46;7.57;;;6.50;;
1346;SDS011;667;48.796;9.480;2022-10-31T17:40:13;9.57;;;6.60;;
1346;SDS011;667;48.796;9.480;2022-10-31T17:42:40;11.53;;;6.30;;
1346;SDS011;667;48.796;9.480;2022-10-31T17:45:06;8.90;;;5.77;;
1346;SDS011;667;48.796;9.480;2022-10-31T17:47:33;6.77;;;5.30;;